Time;durP1;ratioP1;P1;durP2;ratioP2;P2;SDS_P1;SDS_P2;PMS_P1;PMS_P2;Temp;Humidity;BMP_temperature;BMP_pressure;BME280_temperature;BME280_humidity;BME280_pressure;Samples;Min_cycle;Max_cycle;Signal;HPM_P1;HPM_P2
2024/01/02 00:00:59;;;;;;;1.00;0.40;;;;;;;7.47;79.10;148039.63;4977571;28;20217;-53
2024/01/02 00:03:26;;;;;;;1.97;0.33;;;;;;;7.50;78.34;148045.84;4980159;28;20213;-56
2024/01/02 00:05:52;;;;;;;2.00;0.47;;;;;;;7.52;78.71;148052.03;4977581;28;20601;-56
2024/01/02 00:08:19;;;;;;;1.90;0.23;;;;;;;7.57;77.52;148061.97;4980654;28;20218;-56
2024/01/02 00:10:47;;;;;;;2.43;0.40;;;;;;;7.60;77.35;148070.72;4978287;28;20240;-53
2024/01/02 00:13:13;;;;;;;2.17;0.30;;;;;;;7.54;78.25;148057.00;4978723;28;20713;-53
2024/01/02 00:15:40;;;;;;;0.33;0.30;;;;;;;7.59;77.71;148066.97;4977929;28;20325;-56
2024/01/02 00:18:07;;;;;;;2.83;0.40;;;;;;;7.56;78.53;148059.50;4978698;28;20230;-55
2024/01/02 00:20:33;;;;;;;0.53;0.30;;;;;;;7.56;78.01;148060.78;4979899;28;20228;-56
2024/01/02 00:23:00;;;;;;;3.17;1.00;;;;;;;7.56;78.38;148059.50;4977156;28;20720;-56
2024/01/02 00:25:26;;;;;;;1.67;0.40;;;;;;;7.60;78.17;148070.72;4977449;28;20224;-53
2024/01/02 00:27:54;;;;;;;2.07;0.30;;;;;;;7.60;77.55;148070.72;4974569;28;20237;-57
2024/01/02 00:30:21;;;;;;;2.03;0.30;;;;;;;7.61;77.34;148071.94;4959110;28;20228;-53
2024/01/02 00:32:48;;;;;;;1.93;0.33;;;;;;;7.65;76.95;148081.88;4955851;28;20263;-53
2024/01/02 00:35:16;;;;;;;1.47;0.40;;;;;;;7.66;77.27;148085.63;4976876;28;21143;-53
2024/01/02 00:37:42;;;;;;;1.57;0.40;;;;;;;7.67;76.96;148086.84;4975515;28;20589;-52
2024/01/02 00:40:10;;;;;;;1.47;0.50;;;;;;;7.74;77.11;148103.03;4978731;28;20229;-52
2024/01/02 00:42:37;;;;;;;1.30;0.20;;;;;;;7.72;76.75;148099.28;4974987;28;20717;-53
2024/01/02 00:45:06;;;;;;;0.97;0.40;;;;;;;7.78;76.05;148112.97;4972302;28;20233;-53
2024/01/02 00:47:32;;;;;;;2.20;0.32;;;;;;;7.87;75.28;148134.09;4961460;28;20448;-52
2024/01/02 00:49:59;;;;;;;1.37;0.37;;;;;;;7.88;76.42;148137.84;4962724;28;20224;-55
2024/01/02 00:52:26;;;;;;;1.03;0.47;;;;;;;7.91;76.09;148145.31;4979564;28;20232;-55
2024/01/02 00:54:52;;;;;;;1.10;0.30;;;;;;;7.86;76.81;148132.88;4973764;28;20704;-54
2024/01/02 00:57:19;;;;;;;2.33;0.40;;;;;;;7.92;75.27;148147.78;4959983;28;20728;-55
2024/01/02 00:59:46;;;;;;;0.63;0.20;;;;;;;7.95;75.64;148153.97;4977622;28;20225;-53
2024/01/02 01:02:14;;;;;;;0.93;0.27;;;;;;;8.04;75.33;148176.38;4978216;28;22339;-54
2024/01/02 01:04:42;;;;;;;0.30;0.20;;;;;;;8.05;74.34;148178.84;4975298;28;20308;-54
2024/01/02 01:07:11;;;;;;;0.90;0.40;;;;;;;8.06;75.08;148180.06;4977972;28;20252;-54
2024/01/02 01:09:38;;;;;;;0.87;0.47;;;;;;;8.05;75.27;148178.84;4980462;28;20233;-54
2024/01/02 01:12:05;;;;;;;0.90;0.40;;;;;;;8.05;74.40;148178.84;4976268;28;20224;-55
2024/01/02 01:14:32;;;;;;;1.80;0.47;;;;;;;8.06;75.21;148180.06;4969321;28;20225;-52
2024/01/02 01:16:59;;;;;;;1.93;0.40;;;;;;;8.11;74.71;148193.78;4975460;28;20233;-53
2024/01/02 01:19:27;;;;;;;0.80;0.40;;;;;;;8.09;75.12;148187.53;4978540;28;20288;-54
2024/01/02 01:21:54;;;;;;;1.17;0.20;;;;;;;8.13;74.61;148198.75;4958182;28;20241;-53
2024/01/02 01:24:21;;;;;;;1.10;0.30;;;;;;;8.11;74.78;148193.78;4978790;28;20225;-56
2024/01/02 01:26:52;;;;;;;1.57;0.43;;;;;;;8.09;74.68;148188.81;4973816;28;20561;-56
2024/01/02 01:29:19;;;;;;;1.17;0.37;;;;;;;8.10;74.68;148191.28;4978066;28;20226;-56
2024/01/02 01:31:45;;;;;;;0.67;0.30;;;;;;;8.09;73.91;148188.81;4975901;28;20755;-53
2024/01/02 01:34:12;;;;;;;2.50;0.30;;;;;;;8.16;73.75;148204.94;4966017;28;20223;-55
2024/01/02 01:36:40;;;;;;;1.70;0.27;;;;;;;8.17;74.05;148207.44;4963925;28;20225;-53
2024/01/02 01:39:07;;;;;;;1.97;0.30;;;;;;;8.21;72.78;148217.38;4979163;28;20229;-56
2024/01/02 01:41:34;;;;;;;0.97;0.30;;;;;;;8.19;73.51;148212.41;4986793;28;20272;-54
2024/01/02 01:44:00;;;;;;;0.87;0.20;;;;;;;8.19;73.97;148211.19;4976609;28;20579;-56
2024/01/02 01:46:35;;;;;;;0.63;0.30;;;;;;;8.22;73.52;148218.66;4986831;28;20221;-53
2024/01/02 01:49:02;;;;;;;1.20;0.50;;;;;;;8.24;73.99;148223.63;4979243;28;20233;-52
2024/01/02 01:51:29;;;;;;;0.20;0.20;;;;;;;8.25;73.39;148227.34;4982070;28;20228;-56
2024/01/02 01:54:01;;;;;;;1.77;0.63;;;;;;;8.27;74.48;148231.09;4964215;28;20245;-53
2024/01/02 01:56:28;;;;;;;1.70;0.30;;;;;;;8.24;74.31;148223.63;4968583;28;20238;-56
2024/01/02 01:58:55;;;;;;;1.20;0.40;;;;;;;8.25;74.81;148226.09;4959994;28;20221;-56
2024/01/02 02:01:22;;;;;;;0.73;0.40;;;;;;;8.22;75.48;148218.66;4982436;28;20584;-54
2024/01/02 02:03:50;;;;;;;3.23;0.30;;;;;;;8.22;75.15;148218.66;4966585;28;20232;-54
2024/01/02 02:06:17;;;;;;;1.07;0.40;;;;;;;8.23;76.65;148221.13;4983209;28;20247;-53
2024/01/02 02:08:43;;;;;;;3.10;0.40;;;;;;;8.21;77.28;148216.16;4977678;28;21004;-54
2024/01/02 02:11:13;;;;;;;1.60;0.30;;;;;;;8.18;78.11;148208.69;4981189;28;20229;-56
2024/01/02 02:13:41;;;;;;;0.67;0.20;;;;;;;8.12;78.85;148196.25;4968988;28;20229;-56
2024/01/02 02:16:08;;;;;;;1.43;0.40;;;;;;;8.09;78.87;148188.81;4980155;28;20240;-56
2024/01/02 02:18:35;;;;;;;1.30;0.20;;;;;;;8.10;79.72;148190.03;4965351;28;20221;-55
2024/01/02 02:21:02;;;;;;;2.37;0.37;;;;;;;8.07;79.28;148182.56;4961709;28;20244;-52
2024/01/02 02:23:30;;;;;;;2.37;0.30;;;;;;;8.01;81.78;148167.63;4968640;28;20217;-55
2024/01/02 02:25:56;;;;;;;2.23;0.37;;;;;;;8.03;81.12;148173.88;4976615;28;20308;-56
2024/01/02 02:28:23;;;;;;;1.53;0.27;;;;;;;8.01;81.13;148168.91;4980754;28;20229;-53
2024/01/02 02:30:50;;;;;;;1.03;0.50;;;;;;;8.02;80.39;148170.13;4960628;28;20228;-53
2024/01/02 02:33:16;;;;;;;0.50;0.30;;;;;;;8.02;81.04;148170.13;4962393;28;20233;-54
2024/01/02 02:35:43;;;;;;;1.53;0.30;;;;;;;7.98;83.08;148161.44;4960956;28;20302;-53
2024/01/02 02:38:09;;;;;;;0.80;0.30;;;;;;;8.02;82.52;148171.41;4969126;28;20719;-55
2024/01/02 02:40:39;;;;;;;0.70;0.40;;;;;;;7.92;84.23;148146.53;4966094;28;20218;-55
2024/01/02 02:43:05;;;;;;;0.50;0.20;;;;;;;7.87;84.46;148134.09;4978349;28;20249;-54
2024/01/02 02:45:34;;;;;;;0.70;0.23;;;;;;;7.84;85.15;148127.91;4978460;28;20233;-56
2024/01/02 02:48:00;;;;;;;1.10;0.32;;;;;;;7.74;88.01;148103.03;4964688;28;20526;-53
2024/01/02 02:50:27;;;;;;;1.40;0.50;;;;;;;7.79;84.84;148116.69;4977622;28;20565;-56
2024/01/02 02:52:53;;;;;;;1.63;0.23;;;;;;;7.78;84.33;148112.97;4975393;28;20221;-56
2024/01/02 02:55:20;;;;;;;0.63;0.20;;;;;;;7.78;86.83;148112.97;4979293;28;20222;-53
2024/01/02 02:57:48;;;;;;;1.70;0.60;;;;;;;7.67;88.75;148088.13;4960673;28;20229;-56
2024/01/02 03:00:15;;;;;;;1.93;0.30;;;;;;;7.64;87.47;148079.38;4984681;28;20707;-56
2024/01/02 03:02:42;;;;;;;1.40;0.30;;;;;;;7.64;87.98;148079.38;4976491;28;20230;-56
2024/01/02 03:05:09;;;;;;;2.70;0.30;;;;;;;7.61;88.46;148071.94;4979320;28;20325;-53
2024/01/02 03:07:36;;;;;;;0.40;0.30;;;;;;;7.53;89.57;148053.31;4978176;28;20246;-54
2024/01/02 03:10:03;;;;;;;1.03;0.40;;;;;;;7.57;90.69;148061.97;4978203;28;20240;-56
2024/01/02 03:12:29;;;;;;;0.20;0.10;;;;;;;7.58;88.94;148065.75;4979792;28;20225;-54
2024/01/02 03:14:57;;;;;;;1.50;0.30;;;;;;;7.53;90.00;148054.53;4977344;28;20221;-53
2024/01/02 03:17:24;;;;;;;1.13;0.30;;;;;;;7.49;90.94;148043.38;4984006;28;20584;-52
2024/01/02 03:19:50;;;;;;;0.97;0.57;;;;;;;7.44;92.45;148030.94;4976803;28;20229;-56
2024/01/02 03:22:17;;;;;;;0.23;0.20;;;;;;;7.39;93.16;148019.78;4981687;28;20262;-55
2024/01/02 03:24:44;;;;;;;0.63;0.30;;;;;;;7.38;93.48;148017.28;4976830;28;20217;-53
2024/01/02 03:27:11;;;;;;;0.73;0.20;;;;;;;7.33;93.81;148006.09;4978211;28;20237;-54
2024/01/02 03:29:37;;;;;;;1.03;0.20;;;;;;;7.31;95.53;147999.88;4982609;28;20228;-59
2024/01/02 03:32:05;;;;;;;0.80;0.20;;;;;;;7.17;99.44;147966.31;4976012;28;20248;-56
2024/01/02 03:34:32;;;;;;;1.33;0.30;;;;;;;7.20;96.93;147975.03;4978298;28;20221;-55
2024/01/02 03:36:59;;;;;;;1.33;0.10;;;;;;;7.23;96.36;147981.22;4977540;28;20228;-56
2024/01/02 03:39:25;;;;;;;0.60;0.20;;;;;;;7.28;94.43;147993.66;4980566;28;20221;-55
2024/01/02 03:41:52;;;;;;;0.20;0.10;;;;;;;7.26;97.23;147987.47;4977772;28;20728;-56
2024/01/02 03:44:19;;;;;;;0.60;0.20;;;;;;;7.26;96.47;147987.47;4978446;28;20229;-55
2024/01/02 03:46:45;;;;;;;0.20;0.10;;;;;;;7.29;96.48;147994.91;4976140;28;20229;-55
2024/01/02 03:49:13;;;;;;;0.50;0.20;;;;;;;7.29;94.40;147994.91;4978587;28;20228;-56
2024/01/02 03:51:40;;;;;;;0.93;0.10;;;;;;;7.29;96.86;147996.13;4977311;28;20228;-53
2024/01/02 03:54:07;;;;;;;0.20;0.13;;;;;;;7.22;97.16;147980.00;4978095;28;20213;-55
2024/01/02 03:56:34;;;;;;;0.43;0.10;;;;;;;7.22;97.46;147980.00;4980539;28;20276;-57
2024/01/02 03:59:00;;;;;;;0.30;0.10;;;;;;;7.21;96.39;147977.53;4965709;28;20257;-57
2024/01/02 04:01:27;;;;;;;0.10;0.10;;;;;;;7.15;99.79;147962.59;4977807;28;20229;-57
2024/01/02 04:03:54;;;;;;;0.20;0.10;;;;;;;7.14;100.00;147960.13;4975965;28;20226;-55
2024/01/02 04:06:21;;;;;;;0.20;0.10;;;;;;;7.12;99.84;147955.16;4981532;28;20652;-56
2024/01/02 04:08:48;;;;;;;0.40;0.20;;;;;;;7.11;100.00;147952.66;4976936;28;20225;-57
2024/01/02 04:11:16;;;;;;;2.47;0.30;;;;;;;7.12;100.00;147955.16;4979966;28;20249;-56
2024/01/02 04:13:43;;;;;;;0.10;0.10;;;;;;;7.13;99.45;147956.38;4976260;28;20221;-56
2024/01/02 04:16:09;;;;;;;0.47;0.10;;;;;;;7.13;100.00;147957.63;4984530;28;20252;-56
2024/01/02 04:18:36;;;;;;;0.30;0.10;;;;;;;7.09;100.00;147948.91;4980435;28;20233;-57
2024/01/02 04:21:03;;;;;;;1.30;0.30;;;;;;;7.00;100.00;147926.53;4976987;28;20244;-53
2024/01/02 04:23:31;;;;;;;1.40;0.20;;;;;;;6.99;100.00;147924.06;4977305;28;20701;-57
2024/01/02 04:25:57;;;;;;;0.20;0.10;;;;;;;7.00;100.00;147925.31;4977786;28;20221;-53
2024/01/02 04:28:24;;;;;;;1.47;0.17;;;;;;;6.99;100.00;147922.84;4979217;28;20228;-53
2024/01/02 04:30:50;;;;;;;0.30;0.13;;;;;;;7.01;100.00;147927.81;5215069;23;20611;-55
2024/01/02 04:33:17;;;;;;;0.50;0.20;;;;;;;6.98;100.00;147920.34;4974418;28;20336;-53
2024/01/02 04:35:44;;;;;;;0.10;0.10;;;;;;;6.94;100.00;147911.63;4974843;28;20744;-53
2024/01/02 04:38:10;;;;;;;0.73;0.27;;;;;;;6.89;100.00;147900.47;4977874;28;20229;-53
2024/01/02 04:40:38;;;;;;;0.40;0.20;;;;;;;6.90;100.00;147901.69;4978768;28;20715;-55
2024/01/02 04:43:05;;;;;;;0.27;0.10;;;;;;;6.92;100.00;147906.66;4958470;28;20245;-56
2024/01/02 04:45:32;;;;;;;0.40;0.10;;;;;;;6.97;100.00;147919.09;4960153;28;20229;-53
2024/01/02 04:47:58;;;;;;;0.53;0.10;;;;;;;7.00;100.00;147926.53;4958589;28;20689;-56
2024/01/02 04:50:25;;;;;;;0.60;0.20;;;;;;;7.06;100.00;147940.25;4959934;28;20218;-56
2024/01/02 04:52:51;;;;;;;0.17;0.10;;;;;;;7.01;100.00;147929.03;4957849;28;20218;-56
2024/01/02 04:55:18;;;;;;;1.43;0.10;;;;;;;7.07;100.00;147943.94;4959684;28;20249;-56
2024/01/02 04:57:46;;;;;;;0.77;0.10;;;;;;;7.08;100.00;147946.44;4949823;28;20296;-56
2024/01/02 05:00:13;;;;;;;0.33;0.20;;;;;;;7.06;100.00;147940.25;4961093;28;20585;-54
2024/01/02 05:02:40;;;;;;;0.43;0.20;;;;;;;7.13;99.01;147956.38;4961561;28;20222;-56
2024/01/02 05:05:07;;;;;;;0.70;0.10;;;;;;;7.16;98.70;147965.09;4956033;28;20230;-57
2024/01/02 05:07:34;;;;;;;0.40;0.10;;;;;;;7.21;98.57;147976.25;4960988;28;20583;-56
2024/01/02 05:10:00;;;;;;;0.20;0.13;;;;;;;7.19;99.88;147972.53;4953948;28;21636;-55
2024/01/02 05:12:28;;;;;;;0.20;0.00;;;;;;;7.23;99.07;147982.50;4972797;28;20697;-54
2024/01/02 05:14:56;;;;;;;0.17;0.10;;;;;;;7.30;97.63;147997.41;4958955;28;20228;-55
2024/01/02 05:17:22;;;;;;;0.20;0.20;;;;;;;7.30;98.41;147997.41;4966206;28;20245;-56
2024/01/02 05:19:49;;;;;;;0.20;0.10;;;;;;;7.27;100.00;147989.94;4957478;28;20229;-57
2024/01/02 05:22:15;;;;;;;0.20;0.20;;;;;;;7.30;99.35;147997.41;4961072;28;20582;-54
2024/01/02 05:24:42;;;;;;;1.57;0.30;;;;;;;7.29;99.70;147996.13;4960201;28;20217;-56
2024/01/02 05:27:10;;;;;;;0.27;0.20;;;;;;;7.29;100.00;147994.91;4963629;28;20230;-56
2024/01/02 05:29:37;;;;;;;33.97;15.20;;;;;;;7.34;99.75;148007.34;4962612;28;20234;-55
2024/01/02 05:32:05;;;;;;;2.17;1.20;;;;;;;7.34;100.00;148007.34;4961560;28;20249;-56
2024/01/02 05:34:31;;;;;;;0.60;0.60;;;;;;;7.39;100.00;148019.78;4962195;28;20282;-55
2024/01/02 05:36:58;;;;;;;0.60;0.60;;;;;;;7.39;99.20;148019.78;4959895;28;20229;-56
2024/01/02 05:39:25;;;;;;;2.40;1.47;;;;;;;7.37;100.00;148016.03;4970703;28;20629;-56
2024/01/02 05:41:51;;;;;;;0.33;0.30;;;;;;;7.32;100.00;148002.38;4973960;28;20233;-54
2024/01/02 05:44:18;;;;;;;0.90;0.73;;;;;;;7.30;100.00;147997.41;4961059;28;20221;-56
2024/01/02 05:46:44;;;;;;;0.10;0.10;;;;;;;7.32;100.00;148003.59;4961953;28;20230;-54
2024/01/02 05:49:12;;;;;;;0.73;0.20;;;;;;;7.33;100.00;148004.84;4965174;28;20237;-53
2024/01/02 05:51:39;;;;;;;0.20;0.20;;;;;;;7.32;100.00;148003.59;4964382;28;20233;-56
2024/01/02 05:54:05;;;;;;;0.20;0.20;;;;;;;7.30;100.00;147997.41;4956609;28;20705;-53
2024/01/02 05:56:32;;;;;;;0.10;0.10;;;;;;;7.28;100.00;147992.44;4961982;28;20226;-55
2024/01/02 05:58:59;;;;;;;0.20;0.10;;;;;;;7.27;100.00;147991.16;4959996;28;20229;-57
2024/01/02 06:01:25;;;;;;;0.10;0.10;;;;;;;7.31;100.00;148001.09;4969089;28;20249;-53
2024/01/02 06:03:52;;;;;;;0.30;0.20;;;;;;;7.29;100.00;147996.13;4958017;28;20241;-56
2024/01/02 06:06:20;;;;;;;0.40;0.30;;;;;;;7.30;100.00;147997.41;4963012;28;20232;-55
2024/01/02 06:08:46;;;;;;;0.97;0.20;;;;;;;7.34;100.00;148008.56;4958029;28;20236;-55
2024/01/02 06:11:13;;;;;;;1.13;0.20;;;;;;;7.37;100.00;148016.03;4960774;28;20636;-57
2024/01/02 06:13:39;;;;;;;0.13;0.10;;;;;;;7.43;100.00;148029.66;4961117;28;20214;-57
2024/01/02 06:16:09;;;;;;;0.33;0.10;;;;;;;7.43;100.00;148029.66;4959785;28;20241;-57
2024/01/02 06:18:36;;;;;;;0.97;0.80;;;;;;;7.40;100.00;148022.25;4959623;28;20229;-57
2024/01/02 06:21:04;;;;;;;1.30;0.70;;;;;;;7.43;100.00;148029.66;4957800;28;20238;-57
2024/01/02 06:23:33;;;;;;;0.90;0.40;;;;;;;7.46;100.00;148037.13;4971328;28;20239;-57
2024/01/02 06:26:00;;;;;;;0.27;0.20;;;;;;;7.42;100.00;148025.97;4960078;28;20214;-57
2024/01/02 06:28:26;;;;;;;1.17;0.10;;;;;;;7.46;100.00;148037.13;4963795;28;20222;-57
2024/01/02 06:30:53;;;;;;;0.67;0.30;;;;;;;7.49;100.00;148044.59;4959215;28;20644;-57
2024/01/02 06:33:20;;;;;;;0.10;0.00;;;;;;;7.54;100.00;148057.00;4964508;28;20242;-57
2024/01/02 06:35:47;;;;;;;1.23;0.30;;;;;;;7.54;100.00;148057.00;4962239;28;20304;-56
2024/01/02 06:38:13;;;;;;;1.00;0.50;;;;;;;7.53;100.00;148054.53;4961817;28;20246;-56
2024/01/02 06:40:41;;;;;;;2.50;0.50;;;;;;;7.54;100.00;148055.78;4955679;28;20569;-55
2024/01/02 06:43:08;;;;;;;3.50;0.10;;;;;;;7.47;100.00;148039.63;4959524;28;20684;-56
2024/01/02 06:45:34;;;;;;;0.57;0.30;;;;;;;7.50;100.00;148047.06;4962031;28;20225;-55
2024/01/02 06:48:01;;;;;;;2.30;1.70;;;;;;;7.59;100.00;148068.22;4956806;28;21244;-56
2024/01/02 06:50:28;;;;;;;1.53;0.77;;;;;;;7.60;100.00;148069.44;4962699;28;20234;-53
2024/01/02 06:52:54;;;;;;;0.97;0.30;;;;;;;7.58;100.00;148064.47;4958698;28;20678;-53
2024/01/02 06:55:21;;;;;;;3.77;2.87;;;;;;;7.60;100.00;148069.44;4963529;28;20230;-57
2024/01/02 06:57:49;;;;;;;0.63;0.20;;;;;;;7.57;100.00;148063.25;4957729;28;20219;-56
2024/01/02 07:00:16;;;;;;;1.27;1.10;;;;;;;7.58;100.00;148065.75;4961197;28;20243;-54
2024/01/02 07:02:44;;;;;;;0.38;0.30;;;;;;;7.63;100.00;148078.16;4960726;28;20444;-52
2024/01/02 07:05:13;;;;;;;0.50;0.40;;;;;;;7.64;100.00;148079.38;4958653;28;20290;-55
2024/01/02 07:07:40;;;;;;;0.43;0.30;;;;;;;7.65;100.00;148083.16;4959246;28;20245;-56
2024/01/02 07:10:08;;;;;;;0.60;0.50;;;;;;;7.72;100.00;148098.06;4957427;28;20324;-53
2024/01/02 07:12:35;;;;;;;0.50;0.40;;;;;;;7.68;100.00;148090.59;4961369;28;20221;-55
2024/01/02 07:15:03;;;;;;;0.50;0.40;;;;;;;7.66;100.00;148084.38;4973566;28;20297;-55
2024/01/02 07:17:29;;;;;;;2.83;0.90;;;;;;;7.66;100.00;148084.38;4962890;28;20226;-53
2024/01/02 07:19:58;;;;;;;1.00;0.63;;;;;;;7.61;100.00;148073.19;4958504;28;20219;-55
2024/01/02 07:22:24;;;;;;;0.40;0.33;;;;;;;7.71;100.00;148095.56;4959652;28;20254;-56
2024/01/02 07:24:51;;;;;;;4.10;1.93;;;;;;;7.63;100.00;148078.16;4958588;28;20725;-55
2024/01/02 07:27:17;;;;;;;0.97;0.80;;;;;;;7.64;100.00;148080.66;4962696;28;20729;-53
2024/01/02 07:29:44;;;;;;;2.60;1.00;;;;;;;7.68;100.00;148090.59;4961326;28;20233;-53
2024/01/02 07:32:12;;;;;;;0.63;0.50;;;;;;;7.67;100.00;148086.84;4960726;28;20234;-56
2024/01/02 07:34:39;;;;;;;2.50;1.27;;;;;;;7.64;100.00;148079.38;4960485;28;20241;-56
2024/01/02 07:37:05;;;;;;;1.07;0.30;;;;;;;7.62;100.00;148074.41;4959737;28;20266;-55
2024/01/02 07:39:32;;;;;;;1.43;0.50;;;;;;;7.71;100.00;148095.56;4959451;28;20226;-52
2024/01/02 07:41:59;;;;;;;0.67;0.50;;;;;;;7.72;100.00;148099.28;4958431;28;20654;-55
2024/01/02 07:44:28;;;;;;;0.30;0.10;;;;;;;7.76;100.00;148108.00;4959811;28;20589;-53
2024/01/02 07:46:55;;;;;;;0.30;0.20;;;;;;;7.73;100.00;148101.75;4955395;28;20229;-56
2024/01/02 07:49:23;;;;;;;0.37;0.30;;;;;;;7.69;100.00;148091.81;4959435;28;20319;-53
2024/01/02 07:51:51;;;;;;;0.10;0.10;;;;;;;7.69;100.00;148091.81;4961536;28;20226;-52
2024/01/02 07:54:18;;;;;;;0.80;0.30;;;;;;;7.73;100.00;148101.75;4961855;28;20253;-54
2024/01/02 07:56:45;;;;;;;5.33;3.23;;;;;;;7.70;100.00;148094.31;4959087;28;20591;-54
2024/01/02 07:59:15;;;;;;;0.43;0.37;;;;;;;7.75;100.00;148106.75;4965231;28;20317;-53
2024/01/02 08:01:41;;;;;;;1.40;0.40;;;;;;;7.74;100.00;148103.03;4957110;28;20246;-55
2024/01/02 08:04:08;;;;;;;1.00;0.20;;;;;;;7.77;100.00;148111.72;4961944;28;20234;-56
2024/01/02 08:06:36;;;;;;;0.50;0.20;;;;;;;7.74;100.00;148104.25;4958810;28;20252;-56
2024/01/02 08:09:03;;;;;;;1.90;0.30;;;;;;;7.72;100.00;148099.28;4957680;28;20235;-54
2024/01/02 08:11:29;;;;;;;0.40;0.20;;;;;;;7.73;100.00;148100.56;4960150;28;20230;-55
2024/01/02 08:13:56;;;;;;;0.50;0.20;;;;;;;7.69;100.00;148091.81;4959848;28;20226;-53
2024/01/02 08:16:23;;;;;;;1.03;0.20;;;;;;;7.78;100.00;148114.19;4959021;28;20237;-54
2024/01/02 08:18:50;;;;;;;1.50;0.30;;;;;;;7.79;100.00;148116.69;4955664;28;20240;-56
2024/01/02 08:21:17;;;;;;;0.60;0.30;;;;;;;7.80;100.00;148119.16;4959372;28;20643;-56
2024/01/02 08:23:45;;;;;;;1.80;0.33;;;;;;;7.79;100.00;148116.69;4956912;28;20230;-56
2024/01/02 08:26:13;;;;;;;0.37;0.20;;;;;;;7.85;100.00;148129.13;4957454;28;20305;-52
2024/01/02 08:28:40;;;;;;;1.50;0.40;;;;;;;7.85;100.00;148130.38;4962920;28;20257;-54
2024/01/02 08:31:07;;;;;;;0.50;0.40;;;;;;;7.94;100.00;148151.50;4954735;28;20229;-56
2024/01/02 08:33:33;;;;;;;0.30;0.20;;;;;;;7.88;100.00;148136.56;4960195;28;20244;-55
2024/01/02 08:36:00;;;;;;;1.10;1.00;;;;;;;7.92;100.00;148146.53;4959286;28;20213;-56
2024/01/02 08:38:26;;;;;;;1.37;0.93;;;;;;;7.92;100.00;148146.53;4959902;28;20233;-54
2024/01/02 08:40:54;;;;;;;0.70;0.60;;;;;;;7.94;100.00;148151.50;4959875;28;20222;-56
2024/01/02 08:43:21;;;;;;;1.40;0.83;;;;;;;7.96;100.00;148157.69;4960614;28;20228;-53
2024/01/02 08:45:48;;;;;;;2.07;0.40;;;;;;;7.96;100.00;148156.47;4956979;28;20222;-53
2024/01/02 08:48:14;;;;;;;0.63;0.30;;;;;;;8.01;100.00;148168.91;4959197;28;20225;-56
2024/01/02 08:50:42;;;;;;;0.77;0.30;;;;;;;7.96;100.00;148156.47;4964290;28;20840;-53
2024/01/02 08:53:09;;;;;;;0.20;0.10;;;;;;;8.09;100.00;148188.81;4957427;28;20241;-55
2024/01/02 08:55:36;;;;;;;1.00;0.70;;;;;;;8.08;100.00;148185.03;4961041;28;20229;-54
2024/01/02 08:58:05;;;;;;;7.47;4.50;;;;;;;8.08;100.00;148186.31;4959707;28;20225;-52
2024/01/02 09:00:31;;;;;;;0.97;0.50;;;;;;;8.09;100.00;148187.53;4957292;28;20233;-56
2024/01/02 09:02:58;;;;;;;9.03;5.17;;;;;;;8.07;100.00;148183.81;4955751;28;20223;-55
2024/01/02 09:05:26;;;;;;;0.67;0.47;;;;;;;8.09;100.00;148187.53;4960694;28;20230;-53
2024/01/02 09:07:52;;;;;;;12.70;6.77;;;;;;;8.11;100.00;148193.78;4958976;28;20223;-54
2024/01/02 09:10:19;;;;;;;6.13;4.17;;;;;;;8.15;100.00;148201.22;4961075;28;20240;-53
2024/01/02 09:12:46;;;;;;;6.57;3.60;;;;;;;8.11;100.00;148192.50;4956734;28;20225;-55
2024/01/02 09:15:15;;;;;;;0.60;0.57;;;;;;;8.20;100.00;148213.66;4961554;28;20712;-54
2024/01/02 09:17:41;;;;;;;1.50;0.40;;;;;;;8.15;100.00;148201.22;4957212;28;20230;-55
2024/01/02 09:20:11;;;;;;;1.73;0.50;;;;;;;8.13;100.00;148198.75;4961004;28;20231;-55
2024/01/02 09:22:37;;;;;;;15.93;7.73;;;;;;;8.13;100.00;148198.75;4960854;28;20278;-54
2024/01/02 09:25:05;;;;;;;9.47;3.30;;;;;;;8.18;100.00;148209.91;4955296;28;20572;-55
2024/01/02 09:27:33;;;;;;;12.60;5.30;;;;;;;8.13;100.00;148198.75;4953098;28;21133;-55
2024/01/02 09:30:00;;;;;;;12.97;6.80;;;;;;;8.11;100.00;148192.50;4956190;28;20309;-54
2024/01/02 09:32:28;;;;;;;2.00;1.17;;;;;;;8.09;100.00;148188.81;4959943;28;20230;-53
2024/01/02 09:34:55;;;;;;;15.43;9.40;;;;;;;8.14;100.00;148199.97;4956410;28;20228;-55
2024/01/02 09:37:21;;;;;;;1.17;0.23;;;;;;;8.14;100.00;148199.97;4959715;28;20238;-54
2024/01/02 09:39:48;;;;;;;3.83;2.37;;;;;;;8.18;100.00;148208.69;4950444;28;20575;-53
2024/01/02 09:42:38;;;;;;;1.40;0.80;;;;;;;8.17;100.00;148207.44;4943392;28;20246;-53
2024/01/02 09:45:16;;;;;;;2.83;1.53;;;;;;;8.23;100.00;148221.13;4947197;28;20237;-53
2024/01/02 09:48:21;;;;;;;14.00;6.50;;;;;;;8.32;100.00;148243.53;4947852;28;20721;-53
2024/01/02 09:50:59;;;;;;;1.20;0.70;;;;;;;8.36;100.00;148253.47;4946720;28;20832;-54
2024/01/02 09:53:49;;;;;;;8.57;3.83;;;;;;;8.41;100.00;148265.91;4958366;28;20228;-53
2024/01/02 09:56:21;;;;;;;3.60;0.50;;;;;;;8.45;100.00;148274.59;4940288;28;20234;-54
2024/01/02 09:58:58;;;;;;;3.93;1.20;;;;;;;8.41;100.00;148265.91;4947439;28;20648;-53
2024/01/02 10:01:33;;;;;;;2.83;1.50;;;;;;;8.49;100.00;148283.31;4949153;28;20309;-52
2024/01/02 10:04:20;;;;;;;1.50;0.80;;;;;;;8.50;100.00;148285.81;4950558;28;21117;-55
2024/01/02 10:07:06;;;;;;;3.83;1.77;;;;;;;8.60;100.00;148309.47;4958599;28;20240;-53
2024/01/02 10:09:50;;;;;;;1.60;0.37;;;;;;;8.58;100.00;148305.72;4959541;28;20227;-56
2024/01/02 10:12:29;;;;;;;1.07;0.20;;;;;;;8.47;100.00;148279.56;4960339;28;20247;-56
2024/01/02 10:15:06;;;;;;;0.10;0.10;;;;;;;8.47;100.00;148278.34;4953510;28;20333;-54
2024/01/02 10:17:45;;;;;;;1.10;0.30;;;;;;;8.49;100.00;148284.59;4960887;28;20223;-55
2024/01/02 10:20:22;;;;;;;0.33;0.30;;;;;;;8.59;100.00;148306.97;4957717;28;20238;-54
2024/01/02 10:22:56;;;;;;;0.70;0.40;;;;;;;8.52;100.00;148290.78;4960737;28;21049;-56
2024/01/02 10:25:23;;;;;;;0.60;0.60;;;;;;;8.56;100.00;148300.72;4964253;28;20232;-53
2024/01/02 10:28:02;;;;;;;2.80;1.53;;;;;;;8.62;100.00;148314.44;4960166;28;20706;-53
2024/01/02 10:30:36;;;;;;;2.33;1.97;;;;;;;8.67;100.00;148326.88;4963059;28;20237;-53
2024/01/02 10:33:12;;;;;;;1.50;1.40;;;;;;;8.60;100.00;148309.47;4962834;28;20626;-55
2024/01/02 10:35:45;;;;;;;0.70;0.30;;;;;;;8.54;100.00;148295.75;4962762;28;20273;-56
2024/01/02 10:38:20;;;;;;;1.03;0.80;;;;;;;8.68;100.00;148330.59;4961670;28;20234;-55
2024/01/02 10:40:51;;;;;;;0.60;0.50;;;;;;;8.67;100.00;148328.09;4958357;28;20223;-54
2024/01/02 10:43:26;;;;;;;0.23;0.20;;;;;;;8.68;100.00;148330.59;4962801;28;20262;-53
2024/01/02 10:48:49;;;;;;;0.50;0.40;;;;;;;8.76;100.00;148349.28;4962677;28;20217;-52
2024/01/02 10:51:23;;;;;;;0.70;0.50;;;;;;;8.80;100.00;148359.22;4961675;28;20233;-54
2024/01/02 10:53:58;;;;;;;1.03;0.20;;;;;;;8.71;100.00;148338.06;4980400;28;20222;-53
2024/01/02 10:56:38;;;;;;;0.80;0.30;;;;;;;8.68;100.00;148330.59;4984001;28;20241;-53
2024/01/02 10:59:13;;;;;;;1.27;0.80;;;;;;;8.74;100.00;148343.03;4980068;28;20229;-53
2024/01/02 11:01:44;;;;;;;0.63;0.50;;;;;;;8.83;100.00;148366.69;4983160;28;20217;-53
2024/01/02 11:04:21;;;;;;;0.70;0.30;;;;;;;8.84;100.00;148369.19;4982614;28;20243;-53
2024/01/02 11:06:57;;;;;;;0.20;0.20;;;;;;;8.81;100.00;148360.44;4978246;28;20662;-53
2024/01/02 11:09:33;;;;;;;0.30;0.30;;;;;;;8.82;100.00;148362.94;4980747;28;20236;-53
2024/01/02 11:12:01;;;;;;;2.93;0.83;;;;;;;8.91;100.00;148384.09;4981738;28;20233;-52
2024/01/02 11:14:28;;;;;;;0.40;0.20;;;;;;;8.86;100.00;148372.88;4984211;28;20225;-53
2024/01/02 11:16:58;;;;;;;0.27;0.13;;;;;;;9.01;100.00;148410.22;4981949;28;20227;-54
2024/01/02 11:19:32;;;;;;;0.30;0.20;;;;;;;9.03;100.00;148413.91;4982739;28;20256;-52
2024/01/02 11:22:11;;;;;;;0.20;0.17;;;;;;;9.07;100.00;148423.88;4976881;28;20276;-52
2024/01/02 11:24:45;;;;;;;0.40;0.20;;;;;;;9.06;100.00;148420.16;4984542;28;20243;-55
2024/01/02 11:27:14;;;;;;;0.27;0.10;;;;;;;9.05;100.00;148418.91;4980659;28;20233;-53
2024/01/02 11:29:43;;;;;;;1.67;0.20;;;;;;;9.03;100.00;148413.91;4983908;28;20227;-53
2024/01/02 11:32:17;;;;;;;0.20;0.10;;;;;;;9.00;100.00;148406.50;4982910;28;20784;-52
2024/01/02 11:34:59;;;;;;;0.93;0.70;;;;;;;9.03;100.00;148412.69;4982826;28;20235;-53
2024/01/02 11:37:36;;;;;;;0.50;0.30;;;;;;;9.08;100.00;148425.16;4985004;28;20226;-52